This is the latest recevied weather packets stored in our database for station/object SP2NBH-2. If no packets are shown the sender has not sent any weather packets the latest 10 day(s).
| Time | Temp. | Humidity | Pressure | Rain* | Wind** | Luminosity | Snow |
|---|---|---|---|---|---|---|---|
| 1777459535 | 13.89° C | 29% | 1032.4 hPa | - | - | - | - |
| 1777458635 | 11.67° C | 32% | 1032.4 hPa | - | - | - | - |
| 1777457735 | 11.11° C | 33% | 1032.3 hPa | - | - | - | - |
| 1777456835 | 12.22° C | 31% | 1032.5 hPa | - | - | - | - |
| 1777455935 | 11.67° C | 35% | 1032.2 hPa | - | - | - | - |
| 1777455035 | 10.56° C | 36% | 1032.3 hPa | - | - | - | - |
| 1777454167 | 10.56° C | 38% | 1032.2 hPa | - | - | - | - |
| 1777454135 | 10.56° C | 38% | 1032.2 hPa | - | - | - | - |
| 1777453235 | 10.56° C | 38% | 1032.1 hPa | - | - | - | - |
| 1777452335 | 10° C | 39% | 1032 hPa | - | - | - | - |
| 1777451468 | 10.56° C | 39% | 1031.9 hPa | - | - | - | - |
| 1777451435 | 10.56° C | 39% | 1031.9 hPa | - | - | - | - |
| 1777450534 | 10.56° C | 41% | 1031.8 hPa | - | - | - | - |
| 1777449634 | 8.89° C | 45% | 1031.7 hPa | - | - | - | - |
| 1777448734 | 9.44° C | 48% | 1031.6 hPa | - | - | - | - |
| 1777447834 | 9.44° C | 47% | 1031.6 hPa | - | - | - | - |
| 1777446934 | 8.89° C | 47% | 1031.5 hPa | - | - | - | - |
| 1777446067 | 8.89° C | 49% | 1031.3 hPa | - | - | - | - |
| 1777446035 | 8.89° C | 49% | 1031.3 hPa | - | - | - | - |
| 1777445134 | 8.89° C | 51% | 1031.2 hPa | - | - | - | - |
| 1777443427 | 8.89° C | 56% | 1031.1 hPa | - | - | - | - |
| 1777442527 | 8.33° C | 58% | 1030.9 hPa | - | - | - | - |
| 1777441660 | 7.78° C | 61% | 1030.9 hPa | - | - | - | - |
| 1777441626 | 7.78° C | 61% | 1030.9 hPa | - | - | - | - |
| 1777440727 | 7.78° C | 61% | 1030.8 hPa | - | - | - | - |
* Rain since midnight (hover to see other rain measurements)
** Current wind speed in m/s (hover to see current wind gust speed)